Terminal Aerodrome Forecast
Issued by NWS Charleston, WV

Current Version | Previous Version | Graphics & Text | Print | Product List | Glossary On
Versions: 1 2 3 4 5 6 7 8 9 10 11 12 13 14 15 16 17 18 19 20 21 22 23 24 25 26 27 28 29 30
000
FTUS41 KRLX 212116 AAA
TAFPKB
TAF AMD
KPKB 212116Z 2121/2218 12005KT P6SM BKN045 BKN080 BKN090
     FM220600 00000KT 5SM BR FEW250
     FM220700 00000KT 1/4SM FG OVC001
     FM221300 00000KT 3SM BR BKN002
     FM221500 00000KT P6SM FEW050=

USA.gov is the U.S. government's official web portal to all federal, state and local government web resources and services.